sensor_id;sensor_type;location;lat;lon;timestamp;temperature;humidity
8269;DHT22;4174;48.304;16.364;2023-04-01T00:05:44;12.00;99.90
8269;DHT22;4174;48.304;16.364;2023-04-01T00:11:46;12.00;99.90
8269;DHT22;4174;48.304;16.364;2023-04-01T00:17:49;12.00;99.90
8269;DHT22;4174;48.304;16.364;2023-04-01T00:23:53;11.80;99.90
8269;DHT22;4174;48.304;16.364;2023-04-01T00:29:56;11.80;99.90
8269;DHT22;4174;48.304;16.364;2023-04-01T00:36:08;11.80;99.90
8269;DHT22;4174;48.304;16.364;2023-04-01T00:42:18;11.60;99.90
8269;DHT22;4174;48.304;16.364;2023-04-01T00:48:23;11.60;99.90
8269;DHT22;4174;48.304;16.364;2023-04-01T00:54:25;11.50;99.90
8269;DHT22;4174;48.304;16.364;2023-04-01T01:00:27;11.60;99.90
8269;DHT22;4174;48.304;16.364;2023-04-01T01:06:45;11.50;99.90
8269;DHT22;4174;48.304;16.364;2023-04-01T01:13:01;11.50;99.90
8269;DHT22;4174;48.304;16.364;2023-04-01T01:19:23;11.40;99.90
8269;DHT22;4174;48.304;16.364;2023-04-01T01:38:11;11.30;99.90
8269;DHT22;4174;48.304;16.364;2023-04-01T01:44:12;11.30;99.90
8269;DHT22;4174;48.304;16.364;2023-04-01T01:50:16;11.30;99.90
8269;DHT22;4174;48.304;16.364;2023-04-01T01:56:18;11.10;99.90
8269;DHT22;4174;48.304;16.364;2023-04-01T02:02:21;11.20;99.90
8269;DHT22;4174;48.304;16.364;2023-04-01T02:08:31;11.40;99.90
8269;DHT22;4174;48.304;16.364;2023-04-01T02:14:37;11.30;99.90
8269;DHT22;4174;48.304;16.364;2023-04-01T02:20:39;11.20;99.90
8269;DHT22;4174;48.304;16.364;2023-04-01T02:26:41;11.10;99.90
8269;DHT22;4174;48.304;16.364;2023-04-01T02:32:43;11.10;99.90
8269;DHT22;4174;48.304;16.364;2023-04-01T02:38:46;11.10;99.90
8269;DHT22;4174;48.304;16.364;2023-04-01T02:44:49;11.00;99.90
8269;DHT22;4174;48.304;16.364;2023-04-01T02:50:53;11.10;99.90
8269;DHT22;4174;48.304;16.364;2023-04-01T02:56:55;11.10;99.90
8269;DHT22;4174;48.304;16.364;2023-04-01T03:02:58;11.00;99.90
8269;DHT22;4174;48.304;16.364;2023-04-01T03:09:02;10.90;99.90
8269;DHT22;4174;48.304;16.364;2023-04-01T03:15:06;10.70;99.90
8269;DHT22;4174;48.304;16.364;2023-04-01T03:21:15;10.70;99.90
8269;DHT22;4174;48.304;16.364;2023-04-01T03:27:16;10.60;99.90
8269;DHT22;4174;48.304;16.364;2023-04-01T03:33:20;10.50;99.90
8269;DHT22;4174;48.304;16.364;2023-04-01T03:39:23;10.60;99.90
8269;DHT22;4174;48.304;16.364;2023-04-01T03:45:27;10.70;99.90
8269;DHT22;4174;48.304;16.364;2023-04-01T03:51:30;10.50;99.90
8269;DHT22;4174;48.304;16.364;2023-04-01T03:57:34;10.40;99.90
8269;DHT22;4174;48.304;16.364;2023-04-01T04:03:37;10.40;99.90
8269;DHT22;4174;48.304;16.364;2023-04-01T04:09:40;10.60;99.90
8269;DHT22;4174;48.304;16.364;2023-04-01T04:15:44;10.50;99.90
8269;DHT22;4174;48.304;16.364;2023-04-01T04:21:48;10.50;99.90
8269;DHT22;4174;48.304;16.364;2023-04-01T04:27:51;10.40;99.90
8269;DHT22;4174;48.304;16.364;2023-04-01T04:33:55;10.50;99.90
8269;DHT22;4174;48.304;16.364;2023-04-01T04:39:59;10.50;99.90
8269;DHT22;4174;48.304;16.364;2023-04-01T04:46:06;10.50;99.90
8269;DHT22;4174;48.304;16.364;2023-04-01T04:52:09;10.40;99.90
8269;DHT22;4174;48.304;16.364;2023-04-01T04:58:12;10.50;99.90
8269;DHT22;4174;48.304;16.364;2023-04-01T05:04:15;10.40;99.90
8269;DHT22;4174;48.304;16.364;2023-04-01T05:10:20;10.30;99.90
8269;DHT22;4174;48.304;16.364;2023-04-01T05:16:23;10.30;99.90
8269;DHT22;4174;48.304;16.364;2023-04-01T05:22:27;10.40;99.90
8269;DHT22;4174;48.304;16.364;2023-04-01T05:28:30;10.70;99.90
8269;DHT22;4174;48.304;16.364;2023-04-01T05:34:34;11.00;99.90
8269;DHT22;4174;48.304;16.364;2023-04-01T05:40:37;11.30;99.90
8269;DHT22;4174;48.304;16.364;2023-04-01T05:46:41;11.60;99.90
8269;DHT22;4174;48.304;16.364;2023-04-01T05:52:44;11.90;99.90
8269;DHT22;4174;48.304;16.364;2023-04-01T05:58:50;12.00;99.90
8269;DHT22;4174;48.304;16.364;2023-04-01T06:04:53;12.30;99.90
8269;DHT22;4174;48.304;16.364;2023-04-01T06:11:06;12.70;99.90
8269;DHT22;4174;48.304;16.364;2023-04-01T06:17:18;13.30;99.90
8269;DHT22;4174;48.304;16.364;2023-04-01T06:23:47;13.50;99.90
8269;DHT22;4174;48.304;16.364;2023-04-01T06:30:10;14.10;99.90
8269;DHT22;4174;48.304;16.364;2023-04-01T06:42:35;15.20;99.90
8269;DHT22;4174;48.304;16.364;2023-04-01T06:48:54;15.50;99.90
8269;DHT22;4174;48.304;16.364;2023-04-01T06:55:17;15.70;99.90
8269;DHT22;4174;48.304;16.364;2023-04-01T07:01:23;15.60;99.90
8269;DHT22;4174;48.304;16.364;2023-04-01T07:07:37;16.70;99.90
8269;DHT22;4174;48.304;16.364;2023-04-01T07:13:47;17.20;99.90
8269;DHT22;4174;48.304;16.364;2023-04-01T07:20:08;16.80;99.90
8269;DHT22;4174;48.304;16.364;2023-04-01T07:26:23;17.00;99.90
8269;DHT22;4174;48.304;16.364;2023-04-01T07:32:33;18.10;99.00
8269;DHT22;4174;48.304;16.364;2023-04-01T07:44:59;18.10;95.70
8269;DHT22;4174;48.304;16.364;2023-04-01T07:51:32;17.40;96.70
8269;DHT22;4174;48.304;16.364;2023-04-01T07:58:14;18.10;96.00
8269;DHT22;4174;48.304;16.364;2023-04-01T08:04:28;19.30;93.70
8269;DHT22;4174;48.304;16.364;2023-04-01T08:10:33;19.90;91.10
8269;DHT22;4174;48.304;16.364;2023-04-01T08:16:57;20.00;91.00
8269;DHT22;4174;48.304;16.364;2023-04-01T08:23:00;20.30;86.90
8269;DHT22;4174;48.304;16.364;2023-04-01T08:29:19;19.80;88.60
8269;DHT22;4174;48.304;16.364;2023-04-01T08:41:36;18.20;90.80
8269;DHT22;4174;48.304;16.364;2023-04-01T09:00:57;19.10;91.70
8269;DHT22;4174;48.304;16.364;2023-04-01T09:07:07;19.10;91.60
8269;DHT22;4174;48.304;16.364;2023-04-01T09:13:29;18.20;91.20
8269;DHT22;4174;48.304;16.364;2023-04-01T09:32:39;17.20;93.70
8269;DHT22;4174;48.304;16.364;2023-04-01T09:45:01;16.40;93.60
8269;DHT22;4174;48.304;16.364;2023-04-01T09:51:23;15.70;91.40
8269;DHT22;4174;48.304;16.364;2023-04-01T09:57:38;15.50;91.00
8269;DHT22;4174;48.304;16.364;2023-04-01T10:10:55;15.60;95.20
8269;DHT22;4174;48.304;16.364;2023-04-01T10:23:11;16.50;93.60
8269;DHT22;4174;48.304;16.364;2023-04-01T10:29:25;16.70;91.00
8269;DHT22;4174;48.304;16.364;2023-04-01T10:42:09;16.40;87.80
8269;DHT22;4174;48.304;16.364;2023-04-01T10:48:22;16.50;90.10
8269;DHT22;4174;48.304;16.364;2023-04-01T10:54:40;16.40;87.60
8269;DHT22;4174;48.304;16.364;2023-04-01T11:00:55;16.20;90.70
8269;DHT22;4174;48.304;16.364;2023-04-01T11:07:12;16.30;91.90
8269;DHT22;4174;48.304;16.364;2023-04-01T11:13:27;16.60;92.00
8269;DHT22;4174;48.304;16.364;2023-04-01T11:20:01;17.10;92.40
8269;DHT22;4174;48.304;16.364;2023-04-01T11:26:07;17.00;85.00
8269;DHT22;4174;48.304;16.364;2023-04-01T11:32:20;16.40;83.20
8269;DHT22;4174;48.304;16.364;2023-04-01T11:38:33;16.60;85.40
8269;DHT22;4174;48.304;16.364;2023-04-01T11:44:51;16.70;87.50
8269;DHT22;4174;48.304;16.364;2023-04-01T11:51:16;16.40;90.00
8269;DHT22;4174;48.304;16.364;2023-04-01T11:57:35;16.40;90.00
8269;DHT22;4174;48.304;16.364;2023-04-01T12:17:03;16.90;84.70
8269;DHT22;4174;48.304;16.364;2023-04-01T12:29:58;18.10;84.10
8269;DHT22;4174;48.304;16.364;2023-04-01T12:36:19;19.70;74.50
8269;DHT22;4174;48.304;16.364;2023-04-01T12:43:44;19.60;74.30
8269;DHT22;4174;48.304;16.364;2023-04-01T12:55:39;18.00;84.20
8269;DHT22;4174;48.304;16.364;2023-04-01T13:01:50;18.00;93.60
8269;DHT22;4174;48.304;16.364;2023-04-01T13:08:14;20.70;84.80
8269;DHT22;4174;48.304;16.364;2023-04-01T13:21:16;19.80;79.00
8269;DHT22;4174;48.304;16.364;2023-04-01T13:27:22;18.70;85.90
8269;DHT22;4174;48.304;16.364;2023-04-01T13:33:47;18.70;81.40
8269;DHT22;4174;48.304;16.364;2023-04-01T13:40:02;19.20;75.30
8269;DHT22;4174;48.304;16.364;2023-04-01T13:53:49;18.20;75.90
8269;DHT22;4174;48.304;16.364;2023-04-01T13:59:50;19.00;72.90
8269;DHT22;4174;48.304;16.364;2023-04-01T14:05:56;19.90;68.50
8269;DHT22;4174;48.304;16.364;2023-04-01T14:12:09;19.30;70.50
8269;DHT22;4174;48.304;16.364;2023-04-01T14:31:28;18.50;69.90
8269;DHT22;4174;48.304;16.364;2023-04-01T14:37:36;18.00;73.10
8269;DHT22;4174;48.304;16.364;2023-04-01T14:43:54;17.60;70.80
8269;DHT22;4174;48.304;16.364;2023-04-01T14:50:04;17.60;70.40
8269;DHT22;4174;48.304;16.364;2023-04-01T14:56:12;17.50;70.60
8269;DHT22;4174;48.304;16.364;2023-04-01T15:08:58;17.60;72.70
8269;DHT22;4174;48.304;16.364;2023-04-01T15:21:44;18.00;74.60
8269;DHT22;4174;48.304;16.364;2023-04-01T15:27:55;17.60;71.30
8269;DHT22;4174;48.304;16.364;2023-04-01T15:34:08;17.50;72.70
8269;DHT22;4174;48.304;16.364;2023-04-01T15:40:17;17.50;70.10
8269;DHT22;4174;48.304;16.364;2023-04-01T15:53:01;17.20;69.50
8269;DHT22;4174;48.304;16.364;2023-04-01T15:59:20;16.70;73.30
8269;DHT22;4174;48.304;16.364;2023-04-01T16:05:56;16.70;79.30
8269;DHT22;4174;48.304;16.364;2023-04-01T16:12:08;16.60;83.10
8269;DHT22;4174;48.304;16.364;2023-04-01T16:18:26;16.30;83.00
8269;DHT22;4174;48.304;16.364;2023-04-01T16:24:33;16.10;84.80
8269;DHT22;4174;48.304;16.364;2023-04-01T16:30:40;15.80;84.60
8269;DHT22;4174;48.304;16.364;2023-04-01T16:36:53;15.80;86.90
8269;DHT22;4174;48.304;16.364;2023-04-01T16:43:20;15.70;88.70
8269;DHT22;4174;48.304;16.364;2023-04-01T16:49:36;15.30;90.00
8269;DHT22;4174;48.304;16.364;2023-04-01T16:55:49;15.30;90.60
8269;DHT22;4174;48.304;16.364;2023-04-01T17:01:53;15.20;91.80
8269;DHT22;4174;48.304;16.364;2023-04-01T17:08:53;14.90;93.30
8269;DHT22;4174;48.304;16.364;2023-04-01T17:20:58;14.90;93.60
8269;DHT22;4174;48.304;16.364;2023-04-01T17:33:34;14.60;94.30
8269;DHT22;4174;48.304;16.364;2023-04-01T17:39:57;14.10;96.20
8269;DHT22;4174;48.304;16.364;2023-04-01T17:46:02;13.70;98.20
8269;DHT22;4174;48.304;16.364;2023-04-01T17:58:45;13.40;99.90
8269;DHT22;4174;48.304;16.364;2023-04-01T18:05:15;13.20;99.90
8269;DHT22;4174;48.304;16.364;2023-04-01T18:11:28;13.10;99.90
8269;DHT22;4174;48.304;16.364;2023-04-01T18:17:56;13.00;99.90
8269;DHT22;4174;48.304;16.364;2023-04-01T18:23:57;13.00;99.90
8269;DHT22;4174;48.304;16.364;2023-04-01T18:30:15;12.90;99.90
8269;DHT22;4174;48.304;16.364;2023-04-01T18:42:58;12.90;99.90
8269;DHT22;4174;48.304;16.364;2023-04-01T18:49:13;12.90;99.90
8269;DHT22;4174;48.304;16.364;2023-04-01T18:55:33;12.80;99.90
8269;DHT22;4174;48.304;16.364;2023-04-01T19:02:18;12.60;99.90
8269;DHT22;4174;48.304;16.364;2023-04-01T19:08:32;12.50;99.90
8269;DHT22;4174;48.304;16.364;2023-04-01T19:14:48;12.30;99.90
8269;DHT22;4174;48.304;16.364;2023-04-01T19:21:13;12.30;99.90
8269;DHT22;4174;48.304;16.364;2023-04-01T19:27:21;12.10;99.90
8269;DHT22;4174;48.304;16.364;2023-04-01T19:33:24;12.20;99.90
8269;DHT22;4174;48.304;16.364;2023-04-01T19:39:51;11.90;99.90
8269;DHT22;4174;48.304;16.364;2023-04-01T19:46:05;11.80;99.90
8269;DHT22;4174;48.304;16.364;2023-04-01T19:52:31;11.70;99.90
8269;DHT22;4174;48.304;16.364;2023-04-01T19:58:48;11.50;99.90
8269;DHT22;4174;48.304;16.364;2023-04-01T20:04:59;11.30;99.90
8269;DHT22;4174;48.304;16.364;2023-04-01T20:11:22;11.30;99.90
8269;DHT22;4174;48.304;16.364;2023-04-01T20:17:32;11.10;99.90
8269;DHT22;4174;48.304;16.364;2023-04-01T20:29:55;11.10;99.90
8269;DHT22;4174;48.304;16.364;2023-04-01T20:37:18;11.10;99.90
8269;DHT22;4174;48.304;16.364;2023-04-01T20:43:07;11.00;99.90
8269;DHT22;4174;48.304;16.364;2023-04-01T20:49:30;10.90;99.90
8269;DHT22;4174;48.304;16.364;2023-04-01T21:08:35;10.90;99.90
8269;DHT22;4174;48.304;16.364;2023-04-01T21:14:52;10.90;99.90
8269;DHT22;4174;48.304;16.364;2023-04-01T21:21:13;10.90;99.90
8269;DHT22;4174;48.304;16.364;2023-04-01T21:33:39;10.90;99.90
8269;DHT22;4174;48.304;16.364;2023-04-01T21:52:57;11.00;99.90
8269;DHT22;4174;48.304;16.364;2023-04-01T21:59:14;11.10;99.90
8269;DHT22;4174;48.304;16.364;2023-04-01T22:05:34;11.10;99.90
8269;DHT22;4174;48.304;16.364;2023-04-01T22:11:52;11.10;99.90
8269;DHT22;4174;48.304;16.364;2023-04-01T22:18:09;11.10;99.90
8269;DHT22;4174;48.304;16.364;2023-04-01T22:24:17;11.10;99.90
8269;DHT22;4174;48.304;16.364;2023-04-01T22:30:34;11.10;99.90
8269;DHT22;4174;48.304;16.364;2023-04-01T22:37:49;11.10;99.90
8269;DHT22;4174;48.304;16.364;2023-04-01T22:43:08;11.20;99.90
8269;DHT22;4174;48.304;16.364;2023-04-01T22:49:18;11.20;99.90
8269;DHT22;4174;48.304;16.364;2023-04-01T22:55:38;11.30;99.90
8269;DHT22;4174;48.304;16.364;2023-04-01T23:01:41;11.20;99.90
8269;DHT22;4174;48.304;16.364;2023-04-01T23:14:01;11.30;99.90
8269;DHT22;4174;48.304;16.364;2023-04-01T23:26:39;11.40;99.90
8269;DHT22;4174;48.304;16.364;2023-04-01T23:32:41;11.50;99.90
8269;DHT22;4174;48.304;16.364;2023-04-01T23:38:46;11.50;99.90
8269;DHT22;4174;48.304;16.364;2023-04-01T23:44:49;11.60;99.90
8269;DHT22;4174;48.304;16.364;2023-04-01T23:50:51;11.70;99.90
8269;DHT22;4174;48.304;16.364;2023-04-01T23:56:55;11.70;99.90
